Time;durP1;ratioP1;P1;durP2;ratioP2;P2;SDS_P1;SDS_P2;PMS_P1;PMS_P2;Temp;Humidity;BMP_temperature;BMP_pressure;BME280_temperature;BME280_humidity;BME280_pressure;Samples;Min_cycle;Max_cycle;Signal;HPM_P1;HPM_P2
2021/07/08 00:01:18;;;;;;;5.43;2.70;;;14.50;99.90;;;14.30;100.00;101661.53;4201811;28;20028;-73
2021/07/08 00:03:19;;;;;;;7.40;3.00;;;14.50;99.90;;;14.32;99.24;101656.03;4184364;28;20017;-73
2021/07/08 00:05:25;;;;;;;11.75;3.38;;;14.50;99.90;;;14.30;99.02;101658.88;4201902;28;20027;-73
2021/07/08 00:07:26;;;;;;;7.30;2.85;;;14.50;99.90;;;14.21;99.63;101656.31;4184062;28;20036;-73
2021/07/08 00:09:27;;;;;;;6.70;3.30;;;14.50;99.90;;;14.20;100.00;101662.59;4201784;28;20103;-73
2021/07/08 00:11:28;;;;;;;7.22;3.78;;;14.50;99.90;;;14.18;99.87;101667.25;4184171;28;20064;-73
2021/07/08 00:13:29;;;;;;;7.22;3.40;;;14.50;99.90;;;14.30;99.11;101664.19;4201827;28;20056;-73
2021/07/08 00:15:31;;;;;;;14.27;3.78;;;14.50;99.90;;;14.25;99.54;101666.44;4184123;28;20043;-73
2021/07/08 00:17:32;;;;;;;6.28;3.63;;;14.50;99.90;;;14.24;99.81;101663.97;4183897;28;20127;-73
2021/07/08 00:19:34;;;;;;;10.73;4.57;;;14.50;99.90;;;14.19;99.99;101659.13;4167513;28;20041;-73
2021/07/08 00:21:36;;;;;;;10.65;4.40;;;14.50;99.90;;;14.24;100.00;101656.84;4184061;28;20102;-73
2021/07/08 00:23:38;;;;;;;5.25;3.42;;;14.60;99.90;;;14.33;100.00;101655.94;4167098;28;20377;-73
2021/07/08 00:25:39;;;;;;;9.93;4.15;;;14.60;99.90;;;14.35;99.68;101663.72;4183782;28;20490;-73
2021/07/08 00:27:41;;;;;;;6.10;3.65;;;14.60;99.90;;;14.47;98.57;101653.66;4183930;28;20020;-73
2021/07/08 00:29:42;;;;;;;9.93;4.28;;;14.70;99.90;;;14.42;99.07;101659.44;4183941;28;20033;-73
2021/07/08 00:31:43;;;;;;;9.63;4.00;;;14.70;99.90;;;14.32;99.75;101656.03;4201662;28;20035;-73
2021/07/08 00:33:44;;;;;;;7.30;3.58;;;14.70;99.90;;;14.29;100.00;101654.53;4183825;28;20040;-73
2021/07/08 00:35:46;;;;;;;9.68;4.68;;;14.70;99.90;;;14.36;100.00;101655.63;4201720;28;20032;-73
2021/07/08 00:37:47;;;;;;;12.02;4.38;;;14.80;99.90;;;14.48;99.50;101666.78;4183657;28;20028;-73
2021/07/08 00:39:48;;;;;;;10.27;5.25;;;14.80;99.90;;;14.41;99.88;101663.09;4183461;28;20037;-73
2021/07/08 00:41:49;;;;;;;11.05;5.28;;;14.70;99.90;;;14.39;100.00;101663.22;4183724;28;20076;-73
2021/07/08 00:43:53;;;;;;;11.20;4.30;;;14.80;99.90;;;14.40;99.57;101667.56;4183803;28;20021;-73
2021/07/08 00:45:54;;;;;;;13.68;4.68;;;14.80;99.90;;;14.44;99.68;101662.78;4200327;28;20108;-73
2021/07/08 00:47:56;;;;;;;8.57;4.80;;;14.80;99.90;;;14.45;99.39;101663.59;4201541;28;20047;-73
2021/07/08 00:49:57;;;;;;;9.75;4.70;;;14.80;99.90;;;14.53;99.93;101680.41;4167022;28;20475;-73
2021/07/08 00:51:58;;;;;;;12.63;4.93;;;14.80;99.90;;;14.40;99.86;101666.72;4183479;28;20025;-73
2021/07/08 00:53:59;;;;;;;8.93;3.75;;;14.80;99.90;;;14.45;99.73;101666.25;4201163;28;20029;-73
2021/07/08 00:56:03;;;;;;;9.27;4.15;;;14.80;99.90;;;14.31;100.00;101673.78;4201449;28;20025;-73
2021/07/08 00:58:06;;;;;;;10.43;3.95;;;14.70;99.90;;;14.09;100.00;101673.50;4183557;28;20087;-73
2021/07/08 01:00:09;;;;;;;11.38;3.90;;;14.60;99.90;;;14.20;100.00;101663.44;4183834;28;20615;-73
2021/07/08 01:02:14;;;;;;;6.72;3.63;;;14.60;99.90;;;14.26;100.00;101668.13;4183596;28;20029;-73
2021/07/08 01:04:16;;;;;;;5.53;3.25;;;14.60;99.90;;;14.38;100.00;101664.25;4166962;28;20479;-73
2021/07/08 01:06:18;;;;;;;7.30;4.30;;;14.70;99.90;;;14.33;100.00;101673.66;4201191;28;20024;-73
2021/07/08 01:08:20;;;;;;;8.65;4.40;;;14.70;99.90;;;14.37;100.00;101667.03;4183367;28;20059;-73
2021/07/08 01:10:22;;;;;;;8.80;3.67;;;14.70;99.90;;;14.39;100.00;101670.38;4183470;28;20108;-73
2021/07/08 01:12:23;;;;;;;6.55;3.03;;;14.70;99.90;;;14.40;100.00;101674.69;4166974;28;20021;-73
2021/07/08 01:14:24;;;;;;;8.10;3.30;;;14.70;99.90;;;14.37;100.00;101662.56;4201190;28;20032;-73
2021/07/08 01:16:27;;;;;;;7.82;4.35;;;14.70;99.90;;;14.43;100.00;101665.56;4201202;28;20063;-73
2021/07/08 01:18:28;;;;;;;12.60;3.93;;;14.70;99.90;;;14.28;100.00;101673.25;4183359;28;20100;-73
2021/07/08 01:20:32;;;;;;;6.03;3.65;;;14.70;99.90;;;14.36;100.00;101671.53;4183356;28;20040;-73
2021/07/08 01:22:34;;;;;;;10.68;4.28;;;14.70;99.90;;;14.37;100.00;101659.91;4183131;28;20025;-73
2021/07/08 01:24:35;;;;;;;6.13;3.63;;;14.70;99.90;;;14.37;100.00;101657.25;4166750;28;20026;-73
2021/07/08 01:26:40;;;;;;;8.60;4.35;;;14.70;99.90;;;14.51;100.00;101663.81;4201170;28;20035;-73
2021/07/08 01:28:41;;;;;;;7.75;3.50;;;14.80;99.90;;;14.51;100.00;101666.47;4183391;28;20139;-72
2021/07/08 01:30:46;;;;;;;7.53;3.25;;;14.80;99.90;;;14.50;100.00;101667.44;4166644;28;20025;-73
2021/07/08 01:32:47;;;;;;;7.15;3.80;;;14.80;99.90;;;14.47;100.00;101665.09;4201135;28;20057;-73
2021/07/08 01:34:48;;;;;;;6.63;3.45;;;14.90;99.90;;;14.51;100.00;101671.78;4201086;28;20027;-73
2021/07/08 01:36:49;;;;;;;7.43;3.40;;;14.80;99.90;;;14.57;100.00;101678.28;4183287;28;20056;-73
2021/07/08 01:38:51;;;;;;;9.48;4.10;;;14.80;99.90;;;14.62;99.36;101674.16;4166072;28;20042;-73
2021/07/08 01:40:52;;;;;;;7.55;3.60;;;14.80;99.90;;;14.55;99.67;101670.44;4205349;28;20032;-73
2021/07/08 01:42:53;;;;;;;11.10;4.50;;;14.80;99.90;;;14.61;99.31;101667.16;4183265;28;20032;-73
2021/07/08 01:44:54;;;;;;;6.75;3.55;;;14.80;99.90;;;14.55;99.93;101669.63;4216589;28;20028;-73
2021/07/08 01:46:55;;;;;;;8.25;3.20;;;14.80;99.90;;;14.58;100.00;101674.59;4184316;28;20025;-73
2021/07/08 01:48:56;;;;;;;9.20;3.40;;;14.80;99.90;;;14.63;100.00;101677.63;4183350;28;20514;-73
2021/07/08 01:51:05;;;;;;;9.75;3.17;;;14.80;99.90;;;14.56;99.85;101663.31;4184435;28;20092;-73
2021/07/08 01:53:06;;;;;;;6.60;3.65;;;14.80;99.90;;;14.54;100.00;101665.31;4182999;28;20025;-73
2021/07/08 01:55:07;;;;;;;6.43;3.08;;;14.80;99.90;;;14.66;99.49;101666.69;4183076;28;20021;-73
2021/07/08 01:57:09;;;;;;;7.93;3.15;;;14.80;99.90;;;14.67;99.21;101668.34;4184451;28;20168;-73
2021/07/08 01:59:10;;;;;;;8.02;3.30;;;14.90;99.90;;;14.62;99.57;101668.00;4183117;28;20025;-73
2021/07/08 02:01:11;;;;;;;12.43;4.13;;;14.90;99.90;;;14.56;100.00;101668.63;4166486;28;20412;-73
2021/07/08 02:03:12;;;;;;;6.70;3.30;;;14.90;99.90;;;14.56;100.00;101669.47;4185739;28;20368;-73
2021/07/08 02:05:13;;;;;;;5.80;3.97;;;14.90;99.90;;;14.54;100.00;101663.50;4185859;28;20028;-73
2021/07/08 02:07:14;;;;;;;5.82;2.90;;;14.90;99.90;;;14.56;100.00;101663.31;4187032;28;20021;-73
2021/07/08 02:09:15;;;;;;;7.28;3.97;;;14.90;99.90;;;14.61;100.00;101667.16;4187217;28;20029;-73
2021/07/08 02:11:16;;;;;;;6.22;3.72;;;14.90;99.90;;;14.60;100.00;101659.38;4185895;28;20056;-73
2021/07/08 02:13:17;;;;;;;6.47;3.63;;;15.00;99.90;;;14.69;100.00;101671.69;4185951;28;20028;-73
2021/07/08 02:15:19;;;;;;;6.28;3.13;;;15.00;99.90;;;14.70;100.00;101662.72;4186001;28;20035;-73
2021/07/08 02:17:19;;;;;;;5.80;3.30;;;15.00;99.90;;;14.69;100.00;101661.06;4185881;28;20068;-73
2021/07/08 02:19:20;;;;;;;7.70;3.40;;;15.00;99.90;;;14.75;100.00;101660.44;4186901;28;20025;-73
2021/07/08 02:21:23;;;;;;;7.28;3.20;;;15.00;99.90;;;14.81;100.00;101665.91;4169174;28;20029;-73
2021/07/08 02:23:24;;;;;;;9.15;3.60;;;15.10;99.90;;;14.89;99.46;101655.31;4185563;28;20115;-73
2021/07/08 02:25:25;;;;;;;7.88;3.88;;;15.10;99.90;;;14.92;99.07;101662.13;4185643;28;20032;-73
2021/07/08 02:27:26;;;;;;;8.27;4.13;;;15.20;99.90;;;14.86;99.56;101663.63;4169017;28;20021;-73
2021/07/08 02:29:27;;;;;;;7.43;3.95;;;15.20;99.90;;;14.77;100.00;101661.09;4169299;28;20044;-73
2021/07/08 02:31:28;;;;;;;10.65;4.05;;;15.20;99.90;;;14.83;100.00;101663.09;4186881;28;20021;-73
2021/07/08 02:33:29;;;;;;;6.97;3.70;;;15.20;99.90;;;14.86;100.00;101657.47;4186797;28;20033;-73
2021/07/08 02:35:30;;;;;;;8.63;4.90;;;15.20;99.90;;;14.81;99.85;101667.75;4186601;28;20082;-73
2021/07/08 02:37:31;;;;;;;7.15;4.63;;;15.20;99.90;;;14.77;100.00;101664.56;4185332;28;20139;-73
2021/07/08 02:39:32;;;;;;;7.53;4.18;;;15.20;99.90;;;14.67;100.00;101663.03;4171039;28;20049;-73
2021/07/08 02:41:33;;;;;;;7.45;3.90;;;15.10;99.90;;;14.88;99.83;101655.47;4170259;28;20033;-73
2021/07/08 02:43:34;;;;;;;12.63;4.57;;;15.10;99.90;;;14.91;98.57;101660.47;4168826;28;20097;-73
2021/07/08 02:45:39;;;;;;;9.55;4.03;;;15.10;99.90;;;14.67;98.84;101663.03;4169020;28;20029;-73
2021/07/08 02:47:40;;;;;;;11.55;3.88;;;15.10;99.90;;;14.57;100.00;101662.34;4168793;28;20029;-73
2021/07/08 02:49:41;;;;;;;8.82;4.45;;;15.00;99.90;;;14.58;100.00;101666.63;4168735;28;20040;-73
2021/07/08 02:51:42;;;;;;;8.98;4.82;;;14.90;99.90;;;14.54;100.00;101673.28;4168706;28;20025;-73
2021/07/08 02:53:43;;;;;;;7.22;3.85;;;14.90;99.90;;;14.52;100.00;101669.94;4169860;28;20038;-73
2021/07/08 02:55:44;;;;;;;6.70;3.17;;;14.80;99.90;;;14.50;100.00;101664.78;4170041;28;20036;-73
2021/07/08 02:57:46;;;;;;;6.32;3.45;;;14.90;99.90;;;14.52;100.00;101669.94;4152289;28;20076;-73
2021/07/08 02:59:46;;;;;;;8.50;4.20;;;14.80;99.90;;;14.49;100.00;101670.25;4169679;28;20040;-73
2021/07/08 03:01:47;;;;;;;7.90;4.18;;;14.80;99.90;;;14.42;100.00;101667.41;4168651;28;20026;-73
2021/07/08 03:03:48;;;;;;;8.18;4.15;;;14.80;99.90;;;14.51;100.00;101678.91;4169904;28;20520;-73
2021/07/08 03:05:49;;;;;;;6.20;3.47;;;14.80;99.90;;;14.48;100.00;101674.75;4168637;28;20025;-73
2021/07/08 03:07:51;;;;;;;10.35;2.97;;;14.80;99.90;;;14.56;100.00;101680.09;4169433;28;20042;-73
2021/07/08 03:09:52;;;;;;;7.57;3.40;;;14.80;99.90;;;14.45;100.00;101674.22;4168736;28;20030;-73
2021/07/08 03:11:53;;;;;;;7.68;3.50;;;14.80;99.90;;;14.28;100.00;101674.09;4169505;28;20030;-73
2021/07/08 03:13:54;;;;;;;5.03;2.75;;;14.80;99.90;;;14.29;100.00;101669.63;4169577;28;20484;-73
2021/07/08 03:15:55;;;;;;;5.28;3.58;;;14.80;99.90;;;14.38;100.00;101679.34;4169639;28;20044;-73
2021/07/08 03:17:57;;;;;;;6.65;2.95;;;14.80;99.90;;;14.38;100.00;101685.47;4168415;28;20029;-73
2021/07/08 03:19:58;;;;;;;9.70;2.90;;;14.80;99.90;;;14.34;100.00;101684.13;4169488;28;20064;-73
2021/07/08 03:21:59;;;;;;;6.32;3.60;;;14.80;99.90;;;14.28;100.00;101692.66;4169242;28;20030;-73
2021/07/08 03:24:00;;;;;;;9.63;3.67;;;14.80;99.90;;;14.36;100.00;101690.13;4168193;28;20076;-73
2021/07/08 03:26:03;;;;;;;6.47;3.20;;;14.80;99.90;;;14.33;100.00;101698.41;4169294;28;20482;-73
2021/07/08 03:28:04;;;;;;;8.40;3.30;;;14.80;99.90;;;14.32;100.00;101698.50;4151858;28;20180;-73
2021/07/08 03:30:11;;;;;;;6.05;3.05;;;14.80;99.90;;;14.39;100.00;101702.25;4151756;28;20068;-73
2021/07/08 03:32:12;;;;;;;5.75;2.70;;;14.80;99.90;;;14.44;100.00;101699.09;4168059;28;20108;-73
2021/07/08 03:34:13;;;;;;;6.13;2.75;;;14.80;99.90;;;14.48;100.00;101700.47;4169610;28;20030;-73
2021/07/08 03:36:14;;;;;;;6.57;3.30;;;14.90;99.90;;;14.54;100.00;101700.66;4169284;28;20044;-73
2021/07/08 03:38:15;;;;;;;5.20;2.88;;;14.90;99.90;;;14.54;100.00;101705.97;4176028;28;20408;-73
2021/07/08 03:40:17;;;;;;;5.68;2.92;;;14.90;99.90;;;14.58;100.00;101706.47;4184307;28;20037;-73
2021/07/08 03:42:18;;;;;;;7.38;3.53;;;14.90;99.90;;;14.52;100.00;101696.47;4184616;28;20098;-73
2021/07/08 03:44:19;;;;;;;5.35;3.45;;;15.00;99.90;;;14.63;100.00;101701.53;4167899;28;20045;-73
2021/07/08 03:46:20;;;;;;;9.93;4.07;;;15.00;99.90;;;14.55;100.00;101702.31;4184458;28;20025;-73
2021/07/08 03:48:21;;;;;;;9.05;3.63;;;15.00;99.90;;;14.60;100.00;101699.19;4167595;28;20030;-73
2021/07/08 03:50:23;;;;;;;8.43;3.47;;;15.00;99.90;;;14.66;100.00;101695.91;4200827;28;20021;-73
2021/07/08 03:52:24;;;;;;;12.90;3.50;;;15.00;99.90;;;14.64;100.00;101701.34;4201826;28;20025;-73
2021/07/08 03:54:24;;;;;;;10.20;3.45;;;15.10;99.90;;;14.70;100.00;101699.88;4201998;28;20554;-73
2021/07/08 03:56:25;;;;;;;12.40;4.53;;;15.20;99.90;;;14.78;100.00;101705.25;4201929;28;20029;-73
2021/07/08 03:58:26;;;;;;;7.90;3.63;;;15.10;99.90;;;14.71;100.00;101707.72;4202107;28;20442;-73
2021/07/08 04:00:32;;;;;;;8.80;4.47;;;15.20;99.90;;;14.74;100.00;101710.03;4201748;28;20040;-73
2021/07/08 04:02:33;;;;;;;10.77;4.00;;;15.20;99.90;;;14.77;100.00;101711.56;4184010;28;20025;-73
2021/07/08 04:04:38;;;;;;;8.77;3.40;;;15.20;99.90;;;14.87;100.00;101717.59;4184031;28;20043;-73
2021/07/08 04:06:39;;;;;;;8.95;4.10;;;15.20;99.90;;;14.86;100.00;101719.41;4184750;28;20017;-73
2021/07/08 04:08:40;;;;;;;13.68;4.22;;;15.30;99.90;;;14.90;100.00;101717.25;4201669;28;20021;-73
2021/07/08 04:10:44;;;;;;;10.15;4.25;;;15.30;99.90;;;14.90;100.00;101711.94;4201892;28;20059;-73
2021/07/08 04:12:46;;;;;;;6.93;4.00;;;15.30;99.90;;;14.86;100.00;101711.44;4184027;28;20033;-73
2021/07/08 04:14:47;;;;;;;9.00;3.80;;;15.30;99.90;;;14.90;100.00;101722.56;4201883;28;20119;-73
2021/07/08 04:16:47;;;;;;;7.10;3.60;;;15.30;99.90;;;14.92;100.00;101721.41;4184099;28;20435;-73
2021/07/08 04:18:49;;;;;;;9.95;4.25;;;15.30;99.90;;;14.76;100.00;101709.88;4183923;28;20113;-73
2021/07/08 04:20:50;;;;;;;11.68;4.50;;;15.30;99.90;;;14.81;100.00;101713.72;4167264;28;20161;-73
2021/07/08 04:22:51;;;;;;;10.65;4.85;;;15.30;99.90;;;14.88;100.00;101719.22;4167234;28;20100;-73
2021/07/08 04:24:52;;;;;;;10.45;5.10;;;15.30;99.90;;;14.91;100.00;101713.59;4183580;28;20031;-73
2021/07/08 04:26:53;;;;;;;9.18;4.70;;;15.40;99.90;;;14.89;100.00;101704.97;4183639;28;20100;-73
2021/07/08 04:28:54;;;;;;;11.55;5.07;;;15.30;99.90;;;14.94;100.00;101715.94;4201559;28;20036;-73
2021/07/08 04:30:55;;;;;;;10.35;4.93;;;15.40;99.90;;;14.94;100.00;101729.22;4183937;28;20483;-73
2021/07/08 04:32:56;;;;;;;7.22;3.75;;;15.30;99.90;;;15.03;100.00;101722.94;4201637;28;20024;-73
2021/07/08 04:34:57;;;;;;;11.30;4.97;;;15.40;99.90;;;15.03;100.00;101728.25;4183750;28;20045;-74
2021/07/08 04:36:58;;;;;;;13.10;4.95;;;15.40;99.90;;;15.04;100.00;101721.13;4201210;28;20475;-74
2021/07/08 04:38:59;;;;;;;13.48;5.13;;;15.40;99.90;;;15.06;100.00;101719.97;4183271;28;20045;-74
2021/07/08 04:41:01;;;;;;;13.13;7.10;;;15.50;99.90;;;15.08;100.00;101725.97;4183635;28;20067;-74
2021/07/08 04:43:02;;;;;;;8.40;5.45;;;15.50;99.90;;;15.05;100.00;101728.94;4201460;28;20020;-73
2021/07/08 04:45:06;;;;;;;11.15;4.85;;;15.50;99.90;;;15.13;100.00;101736.09;4201343;28;20031;-74
2021/07/08 04:47:07;;;;;;;9.70;4.68;;;15.50;99.90;;;15.05;100.00;101733.41;4201508;28;20028;-74
2021/07/08 04:49:08;;;;;;;8.48;4.35;;;15.50;99.90;;;15.09;100.00;101743.56;4183657;28;20484;-74
2021/07/08 04:51:09;;;;;;;14.70;4.68;;;15.50;99.90;;;15.07;100.00;101737.56;4183614;28;20028;-74
2021/07/08 04:53:18;;;;;;;13.32;5.07;;;15.50;99.90;;;15.05;100.00;101744.06;4183363;28;20021;-74
2021/07/08 04:55:21;;;;;;;10.05;4.38;;;15.60;99.90;;;15.08;100.00;101755.19;4166936;28;20060;-74
2021/07/08 04:57:22;;;;;;;15.93;5.50;;;15.50;99.90;;;15.12;100.00;101747.72;4183578;28;20025;-74
2021/07/08 04:59:23;;;;;;;10.60;4.35;;;15.60;99.90;;;15.09;100.00;101754.19;4183505;28;20505;-74
2021/07/08 05:01:24;;;;;;;10.27;4.53;;;15.60;99.90;;;15.02;100.00;101753.19;4201267;28;20031;-74
2021/07/08 05:03:25;;;;;;;13.38;5.53;;;15.60;99.90;;;15.06;100.00;101754.50;4183755;28;20061;-74
2021/07/08 05:05:26;;;;;;;9.35;5.38;;;15.60;99.90;;;15.03;100.00;101746.00;4166917;28;20021;-74
2021/07/08 05:07:27;;;;;;;9.63;4.75;;;15.60;99.90;;;15.15;100.00;101752.69;4201105;28;20025;-74
2021/07/08 05:09:28;;;;;;;12.13;5.65;;;15.60;99.90;;;15.13;100.00;101754.69;4183631;28;20574;-74
2021/07/08 05:11:28;;;;;;;10.57;4.55;;;15.60;99.90;;;15.15;100.00;101742.06;4183600;28;20032;-74
2021/07/08 05:13:29;;;;;;;12.52;5.03;;;15.60;99.90;;;15.15;100.00;101750.88;4201339;28;20499;-74
2021/07/08 05:15:31;;;;;;;10.88;5.13;;;15.70;99.90;;;15.27;100.00;101759.38;4201260;28;20108;-74
2021/07/08 05:17:31;;;;;;;13.15;5.28;;;15.70;99.90;;;15.31;100.00;101756.25;4183362;28;20075;-74
2021/07/08 05:19:32;;;;;;;11.85;4.68;;;15.80;99.90;;;15.31;100.00;101761.56;4201194;28;20438;-74
2021/07/08 05:21:33;;;;;;;11.48;4.60;;;15.80;99.90;;;15.37;100.00;101762.75;4201222;28;20060;-74
2021/07/08 05:23:36;;;;;;;8.05;4.88;;;15.80;99.90;;;15.37;100.00;101763.59;4166423;28;20026;-74
2021/07/08 05:25:37;;;;;;;12.35;5.50;;;15.80;99.90;;;15.40;100.00;101767.75;4183305;28;20085;-74
2021/07/08 05:27:38;;;;;;;10.50;5.22;;;15.90;99.90;;;15.40;100.00;101765.94;4201249;28;20103;-74
2021/07/08 05:29:39;;;;;;;10.73;5.20;;;15.90;99.90;;;15.41;100.00;101764.09;4166833;28;20116;-74
2021/07/08 05:31:40;;;;;;;16.10;6.30;;;15.90;99.90;;;15.41;100.00;101770.22;4183291;28;20040;-74
2021/07/08 05:33:41;;;;;;;9.65;5.20;;;15.90;99.90;;;15.46;100.00;101775.91;4200909;28;20028;-74
2021/07/08 05:35:42;;;;;;;14.80;6.63;;;16.00;99.90;;;15.36;100.00;101772.53;4201154;28;20549;-74
2021/07/08 05:37:43;;;;;;;10.32;5.68;;;15.90;99.90;;;15.44;100.00;101779.72;4184032;28;20033;-74
2021/07/08 05:39:44;;;;;;;14.43;6.72;;;16.00;99.90;;;15.47;100.00;101774.94;4186035;28;20502;-74
2021/07/08 05:41:45;;;;;;;10.23;5.38;;;16.00;99.90;;;15.54;100.00;101774.28;4186261;28;20025;-74
2021/07/08 05:43:45;;;;;;;18.63;6.30;;;16.00;99.90;;;15.57;100.00;101768.63;4204067;28;20028;-74
2021/07/08 05:45:46;;;;;;;11.90;6.35;;;16.10;99.90;;;15.46;100.00;101778.56;4169842;28;20040;-74
2021/07/08 05:47:48;;;;;;;13.75;6.30;;;16.10;99.90;;;15.53;100.00;101785.94;4204057;28;20079;-74
2021/07/08 05:49:49;;;;;;;10.38;6.22;;;16.10;99.90;;;15.57;100.00;101777.44;4203967;28;20032;-74
2021/07/08 05:51:50;;;;;;;10.27;5.40;;;16.10;99.90;;;15.65;100.00;101774.00;4185816;28;20028;-74
2021/07/08 05:53:53;;;;;;;13.68;6.15;;;16.10;99.90;;;15.63;100.00;101783.94;4186184;28;20492;-74
2021/07/08 05:55:54;;;;;;;10.02;5.93;;;16.20;99.90;;;15.65;100.00;101790.75;4203950;28;20048;-74
2021/07/08 05:57:55;;;;;;;10.93;5.15;;;16.20;99.90;;;15.67;100.00;101786.13;4186055;28;20020;-74
2021/07/08 05:59:56;;;;;;;11.70;6.15;;;16.20;99.90;;;15.66;100.00;101795.09;4185968;28;20025;-74
2021/07/08 06:01:57;;;;;;;12.60;6.70;;;16.20;99.90;;;15.72;100.00;101793.59;4169483;28;20018;-74
2021/07/08 06:03:58;;;;;;;9.90;5.63;;;16.20;99.90;;;15.68;100.00;101797.59;4203649;28;20040;-74
2021/07/08 06:05:59;;;;;;;16.70;5.95;;;16.20;99.90;;;15.77;100.00;101796.63;4185931;28;20420;-74
2021/07/08 06:08:00;;;;;;;12.10;5.95;;;16.30;99.90;;;15.75;100.00;101799.44;4203333;28;20025;-74
2021/07/08 06:10:02;;;;;;;17.00;6.43;;;16.30;99.90;;;15.58;100.00;101802.22;4186231;28;20507;-74
2021/07/08 06:12:03;;;;;;;15.77;6.68;;;16.30;99.90;;;15.59;100.00;101803.91;4185963;28;20087;-74
2021/07/08 06:14:04;;;;;;;16.08;8.02;;;16.30;99.90;;;15.61;100.00;101804.56;4169244;28;20080;-74
2021/07/08 06:16:07;;;;;;;16.67;7.28;;;16.30;99.90;;;15.46;100.00;101809.63;4203499;28;20491;-74
2021/07/08 06:18:08;;;;;;;14.93;6.80;;;16.30;99.90;;;15.58;100.00;101802.22;4185842;28;20047;-74
2021/07/08 06:20:11;;;;;;;16.52;6.72;;;16.30;99.90;;;15.63;100.00;101811.38;4203527;28;20035;-74
2021/07/08 06:22:12;;;;;;;15.38;7.88;;;16.30;99.90;;;15.73;100.00;101806.75;4185545;28;20017;-74
2021/07/08 06:24:13;;;;;;;10.98;6.35;;;16.40;99.90;;;15.67;100.00;101811.88;4185573;28;20028;-74
2021/07/08 06:26:14;;;;;;;13.75;6.65;;;16.40;99.90;;;15.72;100.00;101814.88;4185523;28;20025;-74
2021/07/08 06:28:17;;;;;;;15.70;7.03;;;16.40;99.90;;;15.76;100.00;101810.91;4185574;28;20033;-74
2021/07/08 06:30:19;;;;;;;12.63;6.70;;;16.40;99.90;;;15.55;100.00;101814.03;4169106;28;20067;-74
2021/07/08 06:32:20;;;;;;;12.65;6.85;;;16.40;99.90;;;15.70;100.00;101825.69;4168841;28;20088;-74
2021/07/08 06:34:21;;;;;;;15.38;7.88;;;16.40;99.90;;;15.79;100.00;101821.22;4203396;28;20028;-74
2021/07/08 06:36:21;;;;;;;10.88;6.25;;;16.50;99.90;;;15.86;100.00;101808.94;4203254;28;20025;-74
2021/07/08 06:38:22;;;;;;;13.73;6.65;;;16.50;99.90;;;15.97;100.00;101819.25;4184907;28;20049;-74
2021/07/08 06:40:24;;;;;;;16.73;7.25;;;16.60;99.90;;;15.68;100.00;101811.72;4203186;28;20036;-74
2021/07/08 06:42:24;;;;;;;12.10;7.10;;;16.60;99.90;;;15.89;100.00;101816.56;4185566;28;20104;-74
2021/07/08 06:44:25;;;;;;;14.52;6.93;;;16.60;99.90;;;15.84;100.00;101818.91;4203186;28;20043;-74
2021/07/08 06:46:30;;;;;;;14.48;6.93;;;16.60;99.90;;;15.91;100.00;101825.25;4202973;28;20032;-74
2021/07/08 06:48:31;;;;;;;14.07;7.90;;;16.60;99.90;;;16.03;100.00;101829.25;4184537;28;20036;-74
2021/07/08 06:50:35;;;;;;;16.50;7.15;;;16.60;99.90;;;16.10;99.43;101819.59;4203041;28;20016;-74
2021/07/08 06:52:36;;;;;;;15.13;7.25;;;16.70;99.90;;;16.07;99.69;101819.91;4168359;28;20047;-74
2021/07/08 06:54:38;;;;;;;18.20;7.15;;;16.80;99.90;;;15.87;100.00;101822.06;4185008;28;20480;-74
2021/07/08 06:56:38;;;;;;;14.05;6.78;;;16.70;99.90;;;15.83;100.00;101830.56;4166798;28;20034;-74
2021/07/08 06:58:39;;;;;;;14.25;6.90;;;16.70;99.90;;;15.92;100.00;101837.53;4185218;28;20059;-74
2021/07/08 07:00:41;;;;;;;13.25;7.30;;;16.70;99.90;;;15.95;100.00;101823.91;4184967;28;20044;-74
2021/07/08 07:02:42;;;;;;;15.75;7.80;;;16.80;99.90;;;16.10;100.00;101830.22;4184987;28;20475;-74
2021/07/08 07:04:43;;;;;;;11.10;6.30;;;16.90;99.90;;;16.17;100.00;101828.59;4184872;28;20028;-74
2021/07/08 07:06:44;;;;;;;14.43;6.93;;;16.90;99.90;;;16.26;99.24;101835.56;4184722;28;20021;-74
2021/07/08 07:08:45;;;;;;;16.90;7.70;;;17.00;99.90;;;16.31;99.21;101833.22;4185002;28;20039;-74
2021/07/08 07:10:46;;;;;;;16.55;7.63;;;17.10;99.90;;;16.26;98.63;101832.91;4184928;28;20032;-74
2021/07/08 07:12:49;;;;;;;10.95;7.07;;;17.10;99.90;;;16.31;99.38;101832.41;4184652;28;20120;-74
2021/07/08 07:14:50;;;;;;;9.05;6.10;;;17.10;99.90;;;16.39;99.00;101833.25;4168418;28;20112;-74
2021/07/08 07:16:51;;;;;;;14.45;7.43;;;17.20;99.90;;;16.48;98.84;101834.91;4202564;28;20028;-74
2021/07/08 07:18:52;;;;;;;12.07;6.50;;;17.20;99.90;;;16.55;98.21;101835.91;4202544;28;20032;-74
2021/07/08 07:20:53;;;;;;;14.25;7.30;;;17.30;99.90;;;16.63;98.26;101836.91;4202365;28;20033;-74
2021/07/08 07:22:54;;;;;;;11.90;6.03;;;17.40;99.90;;;16.79;96.79;101845.69;4184559;28;20021;-74
2021/07/08 07:24:55;;;;;;;17.80;7.60;;;17.40;99.90;;;16.73;96.94;101842.88;4184541;28;20052;-74
2021/07/08 07:26:56;;;;;;;15.88;7.20;;;17.50;99.90;;;16.77;96.75;101837.06;4184709;28;20025;-74
2021/07/08 07:28:57;;;;;;;12.95;7.03;;;17.50;99.90;;;16.64;96.10;101847.41;4184497;28;20050;-74
2021/07/08 07:30:58;;;;;;;10.70;6.55;;;17.50;99.90;;;16.68;96.38;101834.56;4184527;28;20025;-74
2021/07/08 07:32:58;;;;;;;16.05;7.20;;;17.50;99.90;;;16.49;96.73;101847.22;4202252;28;20029;-74
2021/07/08 07:35:00;;;;;;;12.15;6.40;;;17.50;99.90;;;16.52;96.49;101841.53;4167786;28;20033;-74
2021/07/08 07:37:01;;;;;;;12.00;7.35;;;17.50;99.90;;;16.64;96.19;101839.41;4167481;28;20081;-74
2021/07/08 07:39:03;;;;;;;14.45;6.45;;;17.50;99.90;;;16.72;96.40;101846.56;4167547;28;20037;-74
2021/07/08 07:41:04;;;;;;;16.42;7.93;;;17.60;99.90;;;16.79;96.34;101853.69;4174896;28;20029;-74
2021/07/08 07:43:05;;;;;;;15.88;7.95;;;17.60;99.90;;;16.71;95.48;101850.22;4202089;28;20170;-74
2021/07/08 07:45:08;;;;;;;13.65;7.18;;;17.60;99.90;;;16.70;95.73;101856.53;4184242;28;20029;-74
2021/07/08 07:47:10;;;;;;;17.38;7.97;;;17.70;99.90;;;16.99;93.13;101854.97;4184427;28;20025;-74
2021/07/08 07:49:11;;;;;;;17.63;7.03;;;17.70;99.90;;;16.95;94.47;101852.84;4184252;28;20021;-74
2021/07/08 07:51:12;;;;;;;13.40;6.43;;;17.80;99.90;;;17.06;93.94;101865.78;4201823;28;20028;-74
2021/07/08 07:53:13;;;;;;;14.02;6.53;;;17.80;99.90;;;17.11;92.49;101868.81;4167210;28;20017;-74
2021/07/08 07:55:15;;;;;;;14.73;7.60;;;17.90;99.90;;;16.89;92.99;101861.50;4201934;28;20028;-74
2021/07/08 07:57:17;;;;;;;16.40;6.43;;;17.90;99.90;;;16.94;93.54;101868.00;4201912;28;20503;-74
2021/07/08 07:59:18;;;;;;;8.02;5.85;;;17.80;99.90;;;17.20;92.29;101861.59;4201673;28;20056;-74
2021/07/08 08:01:19;;;;;;;10.98;6.65;;;18.00;99.90;;;17.31;92.57;101863.91;4200953;28;20025;-74
2021/07/08 08:03:19;;;;;;;13.82;6.45;;;18.00;99.90;;;17.48;91.67;101868.97;4184210;28;20605;-74
2021/07/08 08:05:32;;;;;;;14.48;6.90;;;18.20;99.90;;;17.47;91.63;101866.50;4201720;28;20549;-74
2021/07/08 08:09:54;;;;;;;13.85;6.60;;;18.30;99.90;;;17.41;92.05;101870.66;4201644;28;20082;-74
2021/07/08 08:11:55;;;;;;;12.25;5.97;;;18.40;99.90;;;17.25;92.73;101880.59;4201866;28;20029;-74
2021/07/08 08:13:56;;;;;;;12.90;6.55;;;18.40;99.90;;;17.48;91.91;101874.31;4183857;28;20032;-74
2021/07/08 08:15:57;;;;;;;12.27;6.78;;;18.50;99.90;;;17.60;91.01;101872.13;4201458;28;20041;-74
2021/07/08 08:18:01;;;;;;;13.18;6.32;;;18.50;99.90;;;17.47;90.23;101872.66;4201584;28;20562;-74
2021/07/08 08:20:05;;;;;;;;;;;18.60;99.90;;;17.51;91.29;101870.47;4184509;28;20452;-74
2021/07/08 08:22:07;;;;;;;13.95;6.65;;;18.60;99.90;;;17.62;90.38;101870.94;4201347;28;19913;-74